Time;durP1;ratioP1;P1;durP2;ratioP2;P2;SDS_P1;SDS_P2;PMS_P1;PMS_P2;Temp;Humidity;BMP_temperature;BMP_pressure;BME280_temperature;BME280_humidity;BME280_pressure;Samples;Min_cycle;Max_cycle;Signal;HPM_P1;HPM_P2
2022/11/03 00:01:36;;;;;;;1.80;1.00;;;10.90;99.90;;;;;;5046531;28;20040;-81
2022/11/03 00:04:03;;;;;;;1.73;0.85;;;10.90;99.90;;;;;;5058521;28;20036;-81
2022/11/03 00:06:28;;;;;;;8.73;1.05;;;11.00;99.90;;;;;;5044445;28;20045;-83
2022/11/03 00:08:58;;;;;;;2.72;0.65;;;11.00;99.90;;;;;;5042568;28;20481;-83
2022/11/03 00:11:23;;;;;;;3.92;0.80;;;11.00;99.90;;;;;;5056566;28;20467;-81
2022/11/03 00:13:49;;;;;;;10.13;1.08;;;10.90;99.90;;;;;;5041150;28;20079;-81
2022/11/03 00:16:15;;;;;;;2.35;0.52;;;10.90;99.90;;;;;;5030560;28;20484;-81
2022/11/03 00:18:41;;;;;;;11.55;1.13;;;10.90;99.90;;;;;;5051893;28;20118;-81
2022/11/03 00:21:09;;;;;;;5.05;1.42;;;10.90;99.90;;;;;;5051240;28;20472;-81
2022/11/03 00:23:37;;;;;;;1.48;0.73;;;10.90;99.90;;;;;;5046432;28;20041;-79
2022/11/03 00:26:12;;;;;;;1.02;0.68;;;10.90;99.90;;;;;;5050399;28;20067;-82
2022/11/03 00:28:39;;;;;;;1.05;0.52;;;10.80;99.90;;;;;;5047755;28;20049;-80
2022/11/03 00:31:10;;;;;;;1.65;0.63;;;10.80;99.90;;;;;;5050692;28;20032;-81
2022/11/03 00:33:37;;;;;;;6.20;1.05;;;10.80;99.90;;;;;;5051063;28;20102;-83
2022/11/03 00:36:04;;;;;;;4.53;0.73;;;10.80;99.90;;;;;;5037487;28;20060;-80
2022/11/03 00:38:30;;;;;;;4.40;0.65;;;10.80;99.90;;;;;;5052565;28;20487;-81
2022/11/03 00:41:01;;;;;;;2.33;1.13;;;10.70;99.90;;;;;;5050946;28;20120;-82
2022/11/03 00:43:29;;;;;;;1.65;1.27;;;10.70;99.90;;;;;;5042338;28;20399;-81
2022/11/03 00:45:55;;;;;;;2.05;1.13;;;10.70;99.90;;;;;;5048836;28;20041;-82
2022/11/03 00:48:34;;;;;;;4.88;0.82;;;10.70;99.90;;;;;;5057593;28;20040;-81
2022/11/03 00:51:01;;;;;;;4.57;2.00;;;10.70;99.90;;;;;;5065012;28;20029;-82
2022/11/03 00:53:28;;;;;;;4.20;0.85;;;10.70;99.90;;;;;;5045157;28;20037;-80
2022/11/03 00:55:54;;;;;;;3.42;0.77;;;10.70;99.90;;;;;;5046030;28;20045;-81
2022/11/03 00:58:20;;;;;;;4.70;0.85;;;10.60;99.90;;;;;;5044559;28;20476;-81
2022/11/03 01:00:46;;;;;;;9.68;1.33;;;10.60;99.90;;;;;;5037802;28;20049;-81
2022/11/03 01:03:11;;;;;;;3.13;1.25;;;10.60;99.90;;;;;;5031489;28;20063;-82
2022/11/03 01:08:32;;;;;;;2.67;1.58;;;10.60;99.90;;;;;;5038051;28;20037;-84
2022/11/03 01:13:55;;;;;;;4.20;0.80;;;10.60;99.90;;;;;;5049673;28;20048;-79
2022/11/03 01:16:21;;;;;;;0.45;0.43;;;10.60;99.90;;;;;;5053313;28;20391;-81
2022/11/03 01:18:47;;;;;;;4.90;1.13;;;10.50;99.90;;;;;;5052871;28;20042;-84
2022/11/03 01:21:13;;;;;;;5.10;1.00;;;10.50;99.90;;;;;;5043572;28;20041;-80
2022/11/03 01:23:39;;;;;;;3.35;1.58;;;10.40;99.90;;;;;;5046777;28;20206;-81
2022/11/03 01:26:06;;;;;;;4.90;1.25;;;10.40;99.90;;;;;;5043589;28;20234;-80
2022/11/03 01:28:36;;;;;;;4.03;1.00;;;10.40;99.90;;;;;;5041178;28;20047;-80
2022/11/03 01:31:04;;;;;;;9.52;1.13;;;10.40;99.90;;;;;;5027028;28;20033;-80
2022/11/03 01:33:30;;;;;;;5.18;0.73;;;10.40;99.90;;;;;;5058657;28;20415;-80
2022/11/03 01:35:55;;;;;;;1.30;0.30;;;10.30;99.90;;;;;;5046294;28;20041;-81
2022/11/03 01:38:21;;;;;;;3.28;0.63;;;10.40;99.90;;;;;;5031877;28;20067;-81
2022/11/03 01:40:47;;;;;;;5.00;0.85;;;10.30;99.90;;;;;;5045667;28;20087;-81
2022/11/03 01:43:23;;;;;;;2.53;0.77;;;10.30;99.90;;;;;;5045678;28;20392;-82
2022/11/03 01:46:00;;;;;;;6.85;1.58;;;10.30;99.90;;;;;;5047625;28;20037;-82
2022/11/03 01:48:27;;;;;;;9.48;1.05;;;10.20;99.90;;;;;;5044449;28;20051;-81
2022/11/03 01:50:52;;;;;;;8.68;1.95;;;10.20;99.90;;;;;;5045497;28;20046;-81
2022/11/03 01:53:20;;;;;;;1.02;0.60;;;10.20;99.90;;;;;;5047075;28;20049;-80
2022/11/03 01:55:48;;;;;;;10.07;1.67;;;10.20;99.90;;;;;;5046349;28;20053;-81
2022/11/03 01:58:21;;;;;;;2.08;0.98;;;10.20;99.90;;;;;;5041676;28;20042;-82
2022/11/03 02:00:49;;;;;;;1.85;0.70;;;10.20;99.90;;;;;;5056347;28;20058;-81
2022/11/03 02:03:16;;;;;;;5.72;1.30;;;10.20;99.90;;;;;;5045879;28;20152;-81
2022/11/03 02:05:44;;;;;;;5.40;1.25;;;10.20;99.90;;;;;;5047577;28;20068;-82
2022/11/03 02:08:24;;;;;;;5.28;0.65;;;10.20;99.90;;;;;;5045634;28;20041;-81
2022/11/03 02:10:51;;;;;;;7.20;1.25;;;10.10;99.90;;;;;;5044479;28;20095;-81
2022/11/03 02:13:25;;;;;;;3.83;0.70;;;10.20;99.90;;;;;;5048236;28;20151;-81
2022/11/03 02:15:57;;;;;;;1.08;0.47;;;10.20;99.90;;;;;;5043942;28;20440;-81
2022/11/03 02:18:32;;;;;;;3.58;0.55;;;10.20;99.90;;;;;;5044519;28;20037;-81
2022/11/03 02:21:14;;;;;;;3.58;0.50;;;10.20;99.90;;;;;;5048680;28;20040;-83
2022/11/03 02:23:47;;;;;;;0.40;0.40;;;10.20;99.90;;;;;;5055300;28;20048;-81
2022/11/03 02:26:14;;;;;;;0.95;0.60;;;10.20;99.90;;;;;;5051595;28;20079;-82
2022/11/03 02:28:40;;;;;;;4.45;0.52;;;10.20;99.90;;;;;;5041909;28;20438;-81
2022/11/03 02:31:34;;;;;;;3.42;0.65;;;10.20;99.90;;;;;;5041437;28;20037;-85
2022/11/03 02:34:13;;;;;;;1.48;0.47;;;10.20;99.90;;;;;;5048375;28;20047;-83
2022/11/03 02:37:22;;;;;;;4.28;0.90;;;10.30;99.90;;;;;;5049426;28;20049;-83
2022/11/03 02:40:15;;;;;;;3.15;0.65;;;10.30;99.90;;;;;;5042299;28;20094;-83
2022/11/03 02:42:44;;;;;;;2.95;1.13;;;10.30;99.90;;;;;;5028426;28;20459;-81
2022/11/03 02:45:13;;;;;;;3.97;1.27;;;10.40;99.90;;;;;;5044842;28;20052;-81
2022/11/03 02:47:40;;;;;;;1.58;0.50;;;10.40;99.90;;;;;;5064333;28;20391;-81
2022/11/03 02:50:09;;;;;;;3.13;0.70;;;10.40;99.90;;;;;;5046531;28;20399;-80
2022/11/03 02:52:45;;;;;;;4.78;1.40;;;10.40;99.90;;;;;;5051651;28;20048;-81
2022/11/03 02:55:28;;;;;;;1.58;0.57;;;10.50;99.90;;;;;;5062568;28;20045;-81
2022/11/03 02:57:59;;;;;;;;;;;10.50;99.90;;;;;;5049667;28;20060;-81
2022/11/03 03:00:28;;;;;;;0.17;0.17;;;10.50;99.90;;;;;;5051708;28;19920;-82
2022/11/03 03:03:01;;;;;;;9.52;0.95;;;10.50;99.90;;;;;;5048918;28;20502;-81
2022/11/03 03:05:32;;;;;;;2.53;0.70;;;10.50;99.90;;;;;;5046295;28;20076;-83
2022/11/03 03:08:03;;;;;;;1.25;0.50;;;10.50;99.90;;;;;;5050313;28;20499;-82
2022/11/03 03:10:34;;;;;;;6.70;1.02;;;10.50;99.90;;;;;;5060782;28;20174;-82
2022/11/03 03:13:01;;;;;;;7.93;0.75;;;10.50;99.90;;;;;;5048263;28;20037;-82
2022/11/03 03:15:46;;;;;;;4.50;0.77;;;10.60;99.90;;;;;;5039869;28;20071;-80
2022/11/03 03:18:28;;;;;;;3.28;0.95;;;10.50;99.90;;;;;;5048821;28;20039;-81
2022/11/03 03:21:02;;;;;;;3.05;1.00;;;10.50;99.90;;;;;;5044865;28;20107;-86
2022/11/03 03:23:35;;;;;;;7.05;1.27;;;10.60;99.90;;;;;;5045005;28;20098;-83
2022/11/03 03:26:08;;;;;;;6.93;0.95;;;10.60;99.90;;;;;;5059882;28;20048;-82
2022/11/03 03:28:45;;;;;;;2.70;0.98;;;10.60;99.90;;;;;;5028672;28;20168;-80
2022/11/03 03:31:13;;;;;;;2.05;0.70;;;10.60;99.90;;;;;;5042601;28;20533;-81
2022/11/03 03:33:41;;;;;;;4.32;0.60;;;10.60;99.90;;;;;;5043893;28;20045;-81
2022/11/03 03:36:14;;;;;;;5.63;1.08;;;10.50;99.90;;;;;;5047389;28;20048;-82
2022/11/03 03:38:43;;;;;;;4.28;1.00;;;10.50;99.90;;;;;;5045465;28;20044;-82
2022/11/03 03:41:20;;;;;;;1.38;0.88;;;10.50;99.90;;;;;;5048374;28;20040;-81
2022/11/03 03:43:51;;;;;;;3.95;0.88;;;10.40;99.90;;;;;;5045274;28;20438;-81
2022/11/03 03:46:18;;;;;;;6.63;0.90;;;10.50;99.90;;;;;;5050440;28;20369;-82
2022/11/03 03:48:44;;;;;;;2.15;0.55;;;10.40;99.90;;;;;;5041727;28;20147;-82
2022/11/03 03:51:12;;;;;;;1.08;0.50;;;10.40;99.90;;;;;;5047595;28;20052;-81
2022/11/03 03:53:37;;;;;;;7.38;1.05;;;10.40;99.90;;;;;;5046381;28;20519;-83
2022/11/03 03:56:04;;;;;;;9.00;0.63;;;10.40;99.90;;;;;;5029912;28;20136;-82
2022/11/03 03:58:30;;;;;;;0.60;0.40;;;10.40;99.90;;;;;;5040107;28;20037;-83
2022/11/03 04:00:56;;;;;;;1.00;0.40;;;10.40;99.90;;;;;;5047130;28;20063;-82
2022/11/03 04:03:24;;;;;;;4.40;1.05;;;10.40;99.90;;;;;;5026168;28;20049;-80
2022/11/03 04:05:52;;;;;;;2.28;0.95;;;10.40;99.90;;;;;;5045537;28;20069;-81
2022/11/03 04:08:18;;;;;;;2.45;1.27;;;10.40;99.90;;;;;;5064204;28;20071;-82
2022/11/03 04:24:29;;;;;;;4.50;0.52;;;10.30;99.90;;;;;;5038917;28;20045;-83
2022/11/03 04:27:13;;;;;;;5.97;1.48;;;10.30;99.90;;;;;;5046947;28;20349;-81
2022/11/03 04:29:38;;;;;;;1.17;0.68;;;10.30;99.90;;;;;;5046177;28;20045;-81
2022/11/03 04:32:14;;;;;;;2.95;0.68;;;10.30;99.90;;;;;;5032430;28;21340;-83
2022/11/03 04:34:41;;;;;;;0.63;0.40;;;10.30;99.90;;;;;;5048210;28;20084;-82
2022/11/03 04:37:14;;;;;;;3.80;1.33;;;10.30;99.90;;;;;;5042868;28;20118;-80
2022/11/03 04:39:40;;;;;;;5.93;1.75;;;10.30;99.90;;;;;;5058904;28;20037;-80
2022/11/03 04:42:21;;;;;;;3.40;0.85;;;10.30;99.90;;;;;;5043374;28;20048;-81
2022/11/03 04:44:47;;;;;;;3.25;0.85;;;10.40;99.90;;;;;;5033343;28;20498;-80
2022/11/03 04:47:15;;;;;;;7.68;0.98;;;10.40;99.90;;;;;;5045602;28;20052;-81
2022/11/03 04:49:43;;;;;;;10.75;0.80;;;10.40;99.90;;;;;;5049742;28;20037;-81
2022/11/03 04:52:21;;;;;;;9.07;1.13;;;10.50;99.90;;;;;;5059652;28;20045;-81
2022/11/03 04:54:51;;;;;;;4.32;0.63;;;10.50;99.90;;;;;;5043621;28;20052;-80
2022/11/03 04:57:17;;;;;;;5.50;0.55;;;10.60;99.90;;;;;;5041151;28;20073;-80
2022/11/03 04:59:46;;;;;;;4.95;1.52;;;10.60;99.90;;;;;;5047167;28;20092;-80
2022/11/03 05:02:18;;;;;;;2.22;0.80;;;10.60;99.90;;;;;;5040327;28;20032;-80
2022/11/03 05:04:43;;;;;;;0.88;0.40;;;10.60;99.90;;;;;;5045099;28;20102;-80
2022/11/03 05:07:26;;;;;;;6.82;1.02;;;10.60;99.90;;;;;;5046610;28;20468;-81
2022/11/03 05:09:52;;;;;;;1.48;0.65;;;10.70;99.90;;;;;;5045643;28;20404;-81
2022/11/03 05:12:18;;;;;;;1.00;0.90;;;10.60;99.90;;;;;;5024143;28;20052;-81
2022/11/03 05:14:44;;;;;;;0.40;0.40;;;10.70;99.90;;;;;;5048627;28;20041;-81
2022/11/03 05:17:30;;;;;;;2.78;0.57;;;10.60;99.90;;;;;;5049762;28;20051;-81
2022/11/03 05:20:03;;;;;;;2.30;0.85;;;10.60;99.90;;;;;;5026396;28;20047;-81
2022/11/03 05:22:34;;;;;;;5.38;0.95;;;10.60;99.90;;;;;;5059902;28;20464;-82
2022/11/03 05:25:09;;;;;;;3.40;0.73;;;10.50;99.90;;;;;;5030388;28;20045;-81
2022/11/03 05:27:35;;;;;;;1.40;0.38;;;10.60;99.90;;;;;;5045234;28;20368;-80
2022/11/03 05:30:03;;;;;;;6.20;1.20;;;10.60;99.90;;;;;;5046814;28;20033;-80
2022/11/03 05:32:31;;;;;;;5.75;0.73;;;10.60;99.90;;;;;;5042525;28;20218;-82
2022/11/03 05:34:57;;;;;;;2.55;0.50;;;10.60;99.90;;;;;;5045246;28;20431;-81
2022/11/03 05:37:28;;;;;;;2.63;0.73;;;10.60;99.90;;;;;;5029110;28;20049;-80
2022/11/03 05:40:16;;;;;;;5.43;0.70;;;10.50;99.90;;;;;;5038550;28;20137;-81
2022/11/03 05:42:44;;;;;;;8.38;1.20;;;10.50;99.90;;;;;;5030507;28;20102;-81
2022/11/03 05:45:23;;;;;;;13.88;1.27;;;10.50;99.90;;;;;;5048524;28;20485;-81
2022/11/03 05:47:52;;;;;;;1.40;0.70;;;10.50;99.90;;;;;;5045768;28;20079;-82
2022/11/03 05:50:19;;;;;;;2.60;1.02;;;10.50;99.90;;;;;;5045617;28;20052;-81
2022/11/03 05:52:47;;;;;;;3.92;0.85;;;10.50;99.90;;;;;;5049980;28;20079;-81
2022/11/03 05:55:33;;;;;;;3.70;1.15;;;10.50;99.90;;;;;;5050508;28;20048;-80
2022/11/03 05:58:11;;;;;;;8.68;1.52;;;10.50;99.90;;;;;;5063604;28;20430;-81
2022/11/03 06:00:40;;;;;;;3.80;1.05;;;10.50;99.90;;;;;;5054475;28;20044;-81
2022/11/03 06:03:06;;;;;;;1.98;1.05;;;10.50;99.90;;;;;;5050151;28;20547;-81
2022/11/03 06:05:33;;;;;;;3.97;1.00;;;10.40;99.90;;;;;;5045879;28;20128;-80
2022/11/03 06:08:02;;;;;;;2.47;1.23;;;10.40;99.90;;;;;;5043192;28;20090;-82
2022/11/03 06:10:35;;;;;;;0.90;0.57;;;10.40;99.90;;;;;;5047025;28;20086;-80
2022/11/03 06:13:07;;;;;;;4.13;0.65;;;10.40;99.90;;;;;;5043761;28;20040;-82
2022/11/03 06:15:34;;;;;;;;;;;10.40;99.90;;;;;;5048720;28;20041;-80
2022/11/03 06:18:09;;;;;;;4.00;1.05;;;10.40;99.90;;;;;;5044569;28;20303;-80
2022/11/03 06:20:35;;;;;;;7.53;1.50;;;10.40;99.90;;;;;;5047342;28;20076;-80
2022/11/03 06:23:01;;;;;;;3.33;0.98;;;10.40;99.90;;;;;;5045990;28;20495;-81
2022/11/03 06:25:31;;;;;;;3.70;1.00;;;10.40;99.90;;;;;;5044885;28;20080;-85
2022/11/03 06:28:05;;;;;;;7.85;1.52;;;10.30;99.90;;;;;;5056139;28;20052;-84
2022/11/03 06:30:39;;;;;;;2.95;0.98;;;10.40;99.90;;;;;;5032254;28;20049;-85
2022/11/03 06:33:27;;;;;;;1.85;0.70;;;10.30;99.90;;;;;;5043911;28;20361;-80
2022/11/03 06:36:12;;;;;;;7.32;1.83;;;10.30;99.90;;;;;;5045104;28;20107;-81
2022/11/03 06:38:38;;;;;;;5.97;1.30;;;10.30;99.90;;;;;;5060423;28;20479;-81
2022/11/03 06:41:04;;;;;;;3.45;1.00;;;10.30;99.90;;;;;;5053354;28;20052;-81
2022/11/03 06:43:40;;;;;;;1.90;0.73;;;10.30;99.90;;;;;;5053769;28;20095;-82
2022/11/03 06:46:18;;;;;;;10.32;0.80;;;10.30;99.90;;;;;;5038465;28;20110;-83
2022/11/03 06:48:44;;;;;;;1.23;0.70;;;10.30;99.90;;;;;;5041083;28;20041;-81
2022/11/03 06:51:23;;;;;;;2.17;1.40;;;10.30;99.90;;;;;;5033808;28;20053;-81
2022/11/03 06:53:51;;;;;;;7.15;1.02;;;10.40;99.90;;;;;;5045660;28;20044;-81
2022/11/03 06:56:23;;;;;;;2.30;0.77;;;10.40;99.90;;;;;;5070154;28;20041;-83
2022/11/03 06:58:52;;;;;;;6.18;1.77;;;10.40;99.90;;;;;;5067684;28;20124;-83
2022/11/03 07:01:38;;;;;;;2.83;0.88;;;10.40;99.90;;;;;;5066354;28;20387;-79
2022/11/03 07:04:13;;;;;;;;;;;10.50;99.90;;;;;;5054374;28;20041;-80
2022/11/03 07:06:39;;;;;;;1.33;0.88;;;10.50;99.90;;;;;;5053342;28;19962;-80
2022/11/03 07:09:12;;;;;;;5.07;0.68;;;10.60;99.90;;;;;;5035439;28;20041;-81
2022/11/03 07:11:40;;;;;;;;;;;10.60;99.90;;;;;;5042516;28;20041;-80
2022/11/03 07:14:14;;;;;;;2.55;0.65;;;10.60;99.90;;;;;;5052850;28;19920;-80
2022/11/03 07:16:46;;;;;;;2.75;0.65;;;10.70;99.90;;;;;;5051994;28;20057;-80
2022/11/03 07:19:17;;;;;;;;;;;10.70;99.90;;;;;;5052795;28;20045;-80
2022/11/03 07:21:44;;;;;;;5.25;1.05;;;10.80;99.90;;;;;;5048955;28;19936;-82
2022/11/03 07:24:55;;;;;;;3.42;0.50;;;10.90;99.90;;;;;;5061136;28;20060;-80
2022/11/03 07:27:37;;;;;;;4.90;0.60;;;10.90;99.90;;;;;;4999314;28;20072;-80
2022/11/03 07:30:24;;;;;;;5.07;0.80;;;11.00;99.90;;;;;;5024230;28;20084;-80
2022/11/03 07:33:01;;;;;;;2.13;1.10;;;11.00;99.90;;;;;;5058431;28;20052;-80
2022/11/03 07:35:37;;;;;;;4.38;1.25;;;11.10;99.90;;;;;;5018843;28;20048;-81
2022/11/03 07:38:18;;;;;;;8.70;1.83;;;11.10;99.90;;;;;;5049379;28;20407;-81
2022/11/03 07:40:44;;;;;;;2.73;1.30;;;11.10;99.90;;;;;;5052762;28;20052;-81
2022/11/03 07:43:26;;;;;;;10.25;1.30;;;11.20;99.90;;;;;;5051685;28;20460;-80
2022/11/03 07:45:58;;;;;;;3.35;2.03;;;11.20;99.90;;;;;;5034970;28;20049;-86
2022/11/03 07:48:57;;;;;;;7.65;1.20;;;11.30;99.90;;;;;;5052424;28;20092;-81
2022/11/03 07:51:39;;;;;;;6.82;1.17;;;11.40;99.90;;;;;;5043473;28;20037;-82
2022/11/03 07:54:09;;;;;;;6.72;1.05;;;11.40;99.90;;;;;;5051444;28;20051;-81
2022/11/03 07:56:40;;;;;;;2.28;1.00;;;11.40;99.90;;;;;;5035299;28;20083;-81
2022/11/03 07:59:10;;;;;;;1.25;0.60;;;11.50;99.90;;;;;;5051907;28;20119;-81
2022/11/03 08:01:40;;;;;;;4.88;1.30;;;11.50;99.90;;;;;;5028931;28;20477;-82
2022/11/03 08:04:11;;;;;;;8.80;0.70;;;11.60;99.90;;;;;;5048747;28;20037;-84
2022/11/03 08:06:36;;;;;;;3.60;1.05;;;11.60;99.90;;;;;;5051940;28;20053;-84
2022/11/03 08:09:03;;;;;;;7.00;1.42;;;11.70;99.90;;;;;;5051670;28;20380;-80
2022/11/03 08:11:29;;;;;;;2.08;1.30;;;11.70;99.90;;;;;;5035004;28;20033;-82
2022/11/03 08:13:54;;;;;;;6.15;1.10;;;11.80;99.90;;;;;;5044853;28;20102;-82
2022/11/03 08:16:20;;;;;;;8.98;1.48;;;11.80;99.90;;;;;;5061078;28;20037;-81
2022/11/03 08:18:46;;;;;;;13.20;1.55;;;11.90;99.90;;;;;;5045727;28;20043;-83
2022/11/03 08:21:12;;;;;;;1.63;1.27;;;11.90;99.90;;;;;;5052911;28;20068;-81
2022/11/03 08:23:38;;;;;;;6.63;1.02;;;12.00;99.90;;;;;;5048829;28;20045;-81
2022/11/03 08:26:04;;;;;;;6.47;0.73;;;12.00;99.90;;;;;;5041902;28;20073;-82
2022/11/03 08:28:32;;;;;;;9.50;1.77;;;12.10;99.90;;;;;;5040501;28;20072;-81
2022/11/03 08:31:00;;;;;;;2.72;0.75;;;12.10;99.90;;;;;;5052956;28;20044;-81
2022/11/03 08:33:29;;;;;;;5.80;0.63;;;12.20;99.90;;;;;;5052589;28;20077;-81
2022/11/03 08:35:55;;;;;;;6.55;0.70;;;12.20;99.90;;;;;;5032689;28;20114;-82
2022/11/03 08:38:20;;;;;;;4.82;0.90;;;12.30;99.90;;;;;;5032940;28;20045;-82
2022/11/03 08:40:46;;;;;;;5.93;1.20;;;12.30;99.90;;;;;;5051649;28;20390;-81
2022/11/03 08:43:12;;;;;;;6.35;1.48;;;12.40;99.90;;;;;;5051224;28;20045;-83
2022/11/03 08:45:37;;;;;;;12.65;1.00;;;12.40;99.90;;;;;;5035312;28;20040;-81
2022/11/03 08:48:03;;;;;;;1.98;0.93;;;12.50;99.90;;;;;;5051743;28;20127;-82
2022/11/03 08:50:29;;;;;;;6.97;1.33;;;12.50;99.90;;;;;;5062242;28;20044;-83
2022/11/03 08:52:55;;;;;;;3.33;0.80;;;12.60;99.90;;;;;;5058172;28;20372;-80
2022/11/03 08:55:20;;;;;;;1.20;0.70;;;12.60;99.90;;;;;;5058998;28;20090;-82
2022/11/03 08:57:46;;;;;;;2.42;0.75;;;12.60;99.90;;;;;;5058580;28;20061;-81
2022/11/03 09:00:12;;;;;;;5.10;1.23;;;12.70;99.90;;;;;;5058090;28;20052;-82
2022/11/03 09:02:38;;;;;;;1.08;0.68;;;12.80;99.90;;;;;;5056739;28;20098;-82
2022/11/03 09:05:06;;;;;;;4.15;0.73;;;12.80;99.90;;;;;;5038014;28;20480;-81
2022/11/03 09:07:32;;;;;;;4.18;0.90;;;12.80;99.90;;;;;;5055349;28;20124;-80
2022/11/03 09:09:58;;;;;;;1.23;0.70;;;12.90;99.90;;;;;;5051501;28;20123;-83
2022/11/03 09:12:23;;;;;;;6.13;0.98;;;13.00;99.90;;;;;;5051604;28;20056;-83
2022/11/03 09:14:49;;;;;;;6.13;1.35;;;13.00;99.90;;;;;;5051984;28;20075;-82
2022/11/03 09:17:15;;;;;;;1.80;0.77;;;13.10;99.90;;;;;;5051238;28;20395;-82
2022/11/03 09:19:40;;;;;;;4.43;1.15;;;13.20;99.90;;;;;;5051357;28;20044;-81
2022/11/03 09:22:06;;;;;;;2.22;0.68;;;13.30;99.90;;;;;;5052770;28;20045;-81
2022/11/03 09:24:32;;;;;;;3.28;1.20;;;13.40;99.90;;;;;;5055044;28;20088;-82
2022/11/03 09:26:57;;;;;;;5.45;0.90;;;13.50;99.90;;;;;;5056557;28;20056;-81
2022/11/03 09:29:23;;;;;;;1.90;1.10;;;13.60;99.90;;;;;;5055544;28;20145;-82
2022/11/03 09:31:49;;;;;;;12.65;1.67;;;13.70;99.90;;;;;;5039761;28;20052;-82
2022/11/03 09:34:14;;;;;;;2.65;0.95;;;13.90;99.90;;;;;;5060726;28;20130;-80
2022/11/03 09:36:40;;;;;;;2.92;0.90;;;14.00;99.90;;;;;;5059364;28;20498;-81
2022/11/03 09:39:06;;;;;;;10.52;1.00;;;14.10;99.90;;;;;;5060015;28;20051;-81
2022/11/03 09:41:32;;;;;;;5.40;1.30;;;14.20;99.90;;;;;;5056353;28;20037;-82
2022/11/03 09:43:59;;;;;;;13.77;1.33;;;14.20;99.90;;;;;;5022246;28;20057;-81
2022/11/03 09:46:27;;;;;;;3.13;0.93;;;14.20;99.90;;;;;;5053850;28;20437;-83
2022/11/03 09:48:54;;;;;;;2.53;1.27;;;14.20;99.90;;;;;;5054835;28;20051;-81
2022/11/03 09:51:21;;;;;;;4.13;0.80;;;14.20;99.90;;;;;;5038156;28;20145;-82
2022/11/03 09:53:47;;;;;;;2.65;0.90;;;14.20;99.90;;;;;;5054968;28;20044;-83
2022/11/03 09:56:16;;;;;;;4.35;2.00;;;14.20;99.90;;;;;;5050904;28;20034;-82
2022/11/03 09:58:42;;;;;;;1.75;0.63;;;14.20;99.90;;;;;;5034894;28;20480;-81
2022/11/03 10:01:10;;;;;;;2.45;0.80;;;14.30;99.90;;;;;;5051335;28;20044;-81
2022/11/03 10:03:37;;;;;;;2.17;0.93;;;14.40;99.90;;;;;;5034915;28;20107;-84
2022/11/03 10:06:04;;;;;;;2.78;0.88;;;14.40;99.90;;;;;;5042464;28;20037;-82
2022/11/03 10:08:31;;;;;;;7.63;1.55;;;14.50;99.90;;;;;;5071114;28;20103;-82
2022/11/03 10:10:59;;;;;;;2.78;1.10;;;14.60;99.90;;;;;;5055534;28;20041;-82
2022/11/03 10:13:48;;;;;;;4.30;0.90;;;14.70;99.90;;;;;;5054414;28;20052;-81
2022/11/03 10:16:17;;;;;;;4.15;0.88;;;14.80;99.90;;;;;;5070965;28;20044;-83
2022/11/03 10:18:44;;;;;;;8.02;1.25;;;14.90;99.90;;;;;;5054302;28;20048;-83
2022/11/03 10:21:24;;;;;;;3.22;1.02;;;14.90;99.90;;;;;;5054446;28;20487;-82
2022/11/03 10:23:50;;;;;;;1.48;1.38;;;14.90;99.90;;;;;;5054510;28;20052;-83
2022/11/03 10:26:17;;;;;;;4.28;1.00;;;14.80;99.90;;;;;;5051367;28;20044;-82
2022/11/03 10:29:07;;;;;;;4.10;0.85;;;14.80;99.90;;;;;;5055467;28;20041;-82
2022/11/03 10:31:39;;;;;;;2.20;0.77;;;14.80;99.90;;;;;;5054114;28;20045;-82
2022/11/03 10:34:26;;;;;;;3.22;1.08;;;14.80;99.90;;;;;;5055007;28;20052;-82
2022/11/03 10:37:16;;;;;;;3.58;1.10;;;14.80;99.90;;;;;;5054221;28;20095;-82
2022/11/03 10:39:43;;;;;;;3.28;0.60;;;14.80;99.90;;;;;;5038743;28;20487;-82
2022/11/03 10:42:20;;;;;;;2.55;0.80;;;14.80;99.90;;;;;;5034102;28;20480;-82
2022/11/03 10:44:46;;;;;;;2.30;0.73;;;14.80;99.90;;;;;;5045543;28;20103;-82
2022/11/03 10:47:34;;;;;;;4.32;0.98;;;14.80;99.90;;;;;;5042561;28;20045;-84
2022/11/03 10:50:22;;;;;;;3.42;0.85;;;14.80;99.90;;;;;;5050703;28;20483;-81
2022/11/03 10:52:49;;;;;;;3.75;0.82;;;15.00;99.90;;;;;;5034165;28;20120;-83
2022/11/03 10:55:15;;;;;;;1.15;0.45;;;15.10;99.90;;;;;;5033776;28;20053;-83
2022/11/03 10:57:41;;;;;;;1.00;0.50;;;15.30;99.90;;;;;;5017562;28;20049;-83
2022/11/03 11:00:12;;;;;;;3.03;0.98;;;15.30;99.90;;;;;;5036502;28;20124;-81
2022/11/03 11:02:41;;;;;;;5.38;0.90;;;15.30;99.90;;;;;;5070270;28;20073;-82
2022/11/03 11:05:14;;;;;;;4.00;0.73;;;15.40;99.90;;;;;;5053669;28;20514;-81
2022/11/03 11:07:43;;;;;;;5.20;0.80;;;15.40;99.90;;;;;;5037056;28;20444;-81
2022/11/03 11:10:25;;;;;;;5.93;1.23;;;15.40;99.90;;;;;;5052606;28;20162;-81
2022/11/03 11:13:20;;;;;;;3.53;0.85;;;15.40;99.90;;;;;;5070333;28;20124;-81
2022/11/03 11:15:49;;;;;;;3.40;1.65;;;15.30;99.90;;;;;;5060542;28;20162;-83
2022/11/03 11:18:29;;;;;;;6.57;0.80;;;15.30;99.90;;;;;;5064714;28;20037;-81
2022/11/03 11:20:59;;;;;;;5.78;0.70;;;15.30;99.90;;;;;;5051136;28;20114;-81
2022/11/03 11:23:28;;;;;;;1.27;0.73;;;15.30;99.90;;;;;;5048846;28;20464;-81
2022/11/03 11:26:09;;;;;;;4.80;0.95;;;15.30;99.90;;;;;;5042207;28;20087;-83
2022/11/03 11:28:40;;;;;;;1.17;0.52;;;15.40;99.90;;;;;;5053364;28;20048;-82
2022/11/03 11:31:21;;;;;;;1.70;0.73;;;15.40;99.90;;;;;;5052173;28;20033;-81
2022/11/03 11:33:47;;;;;;;2.00;0.63;;;15.40;99.90;;;;;;5058752;28;20051;-84
2022/11/03 11:36:22;;;;;;;0.75;0.57;;;15.40;99.90;;;;;;5048180;28;20045;-81
2022/11/03 11:38:50;;;;;;;1.88;0.55;;;15.40;99.90;;;;;;5046377;28;20038;-82
2022/11/03 11:41:16;;;;;;;6.65;1.35;;;15.40;99.90;;;;;;5060962;28;20103;-81
2022/11/03 11:43:41;;;;;;;1.30;0.60;;;15.40;99.90;;;;;;5050980;28;21688;-82
2022/11/03 11:46:22;;;;;;;3.67;1.05;;;15.30;99.90;;;;;;5035568;28;20057;-83
2022/11/03 11:49:03;;;;;;;2.88;0.90;;;15.30;99.90;;;;;;5047969;28;20041;-82
2022/11/03 11:51:36;;;;;;;3.85;0.88;;;15.30;99.90;;;;;;5047553;28;20390;-85
2022/11/03 11:54:07;;;;;;;4.28;0.80;;;15.30;99.90;;;;;;5048899;28;20045;-82
2022/11/03 11:56:39;;;;;;;2.67;1.13;;;15.30;99.90;;;;;;5033532;28;20391;-82
2022/11/03 11:59:14;;;;;;;1.95;0.90;;;15.30;99.90;;;;;;5033948;28;20084;-82
2022/11/03 12:01:40;;;;;;;3.42;0.90;;;15.20;99.90;;;;;;5032821;28;20057;-83
2022/11/03 12:04:12;;;;;;;6.80;1.75;;;15.30;99.90;;;;;;5032617;28;20579;-81
2022/11/03 12:06:39;;;;;;;3.28;1.13;;;15.20;99.90;;;;;;5048466;28;20383;-81
2022/11/03 12:09:11;;;;;;;2.88;0.90;;;15.20;99.90;;;;;;5069170;28;20037;-83
2022/11/03 12:11:55;;;;;;;2.00;1.05;;;15.20;99.90;;;;;;5051011;28;20041;-83
2022/11/03 12:14:35;;;;;;;1.45;0.75;;;15.20;99.90;;;;;;5053628;28;20045;-81
2022/11/03 12:17:16;;;;;;;4.63;0.60;;;15.30;99.90;;;;;;5049736;28;20041;-82
2022/11/03 12:19:46;;;;;;;1.23;0.55;;;15.20;99.90;;;;;;5032168;28;20102;-82
2022/11/03 12:22:24;;;;;;;2.03;0.63;;;15.20;99.90;;;;;;5032327;28;20054;-82
2022/11/03 12:24:52;;;;;;;4.03;0.88;;;15.20;99.90;;;;;;5032335;28;20087;-83
2022/11/03 12:27:24;;;;;;;1.50;0.60;;;15.20;99.90;;;;;;5051475;28;20123;-84
2022/11/03 12:29:51;;;;;;;7.15;1.13;;;15.30;99.90;;;;;;5052982;28;20137;-81
2022/11/03 12:32:17;;;;;;;6.25;1.15;;;15.40;99.90;;;;;;5051347;28;20041;-84
2022/11/03 12:34:44;;;;;;;4.32;0.90;;;15.50;99.90;;;;;;5052746;28;20098;-82
2022/11/03 12:37:10;;;;;;;5.47;1.05;;;15.50;99.90;;;;;;5067955;28;20055;-82
2022/11/03 12:39:36;;;;;;;2.30;1.25;;;15.60;99.90;;;;;;5051879;28;20119;-81
2022/11/03 12:42:02;;;;;;;2.20;0.95;;;15.60;99.90;;;;;;5051736;28;20041;-82
2022/11/03 12:44:28;;;;;;;5.95;0.82;;;15.70;99.90;;;;;;5053195;28;20106;-82
2022/11/03 12:46:54;;;;;;;4.70;0.90;;;15.80;99.90;;;;;;5052242;28;20041;-84
2022/11/03 12:49:19;;;;;;;1.85;0.77;;;15.90;99.90;;;;;;5051707;28;20056;-82
2022/11/03 12:51:45;;;;;;;3.55;1.05;;;16.00;99.90;;;;;;5051348;28;20037;-83
2022/11/03 12:54:11;;;;;;;2.25;1.55;;;16.10;99.90;;;;;;5051577;28;20498;-82
2022/11/03 12:56:37;;;;;;;1.30;0.80;;;16.00;99.90;;;;;;5034721;28;20036;-82
2022/11/03 12:59:02;;;;;;;3.13;1.05;;;16.00;99.90;;;;;;5036333;28;20077;-82
2022/11/03 13:01:28;;;;;;;0.90;0.63;;;15.90;99.90;;;;;;5048063;28;20041;-81
2022/11/03 13:03:54;;;;;;;0.75;0.60;;;15.90;99.90;;;;;;5064781;28;20081;-82
2022/11/03 13:06:20;;;;;;;2.13;0.82;;;15.80;99.90;;;;;;5031570;28;20041;-83
2022/11/03 13:08:46;;;;;;;1.30;0.70;;;15.70;99.90;;;;;;5032449;28;20046;-83
2022/11/03 13:13:56;;;;;;;1.73;0.80;;;15.70;99.90;;;;;;5031681;28;20057;-82
2022/11/03 13:16:22;;;;;;;4.88;0.60;;;15.70;99.90;;;;;;5032508;28;20465;-83
2022/11/03 13:18:48;;;;;;;6.22;1.30;;;15.60;99.90;;;;;;5038447;28;20052;-82
2022/11/03 13:21:13;;;;;;;1.45;1.13;;;15.60;99.90;;;;;;5052334;28;20404;-84
2022/11/03 13:23:40;;;;;;;4.63;0.80;;;15.60;99.90;;;;;;5051550;28;20037;-82
2022/11/03 13:26:05;;;;;;;1.25;0.65;;;15.60;99.90;;;;;;5052332;28;20084;-84
2022/11/03 13:28:31;;;;;;;2.30;0.77;;;15.60;99.90;;;;;;5052084;28;20107;-83